• Join FlightAware (Why Join?)
  • Login
  • US Flag 
06:01AM EDT


 

Airport Tracker/Info


-or-


 

Live Flight TrackerFlight Track Log ✈ N58HW ✈ 29-Apr-2013 ✈ 14G - 1G3

Flight Track Log - Related Links

Times and Time Zones

All times are in EDT time to prevent confusion due to time zone crossing. See the N58HW flight status page for this flight to view local times or setup timezone preferences in your user account.

Time Position Orientation Groundspeed Altitude Reporting Facility
EDT Latitude Longitude Course Direction KTS MPH feet Rate Location/Type
02:57PM 41.2828 -82.6306 97° East 202 232 3,000  Level Cleveland Center
02:58PM 41.2756 -82.5669 99° East 200 230 2,900 -120 Descending Cleveland Center
02:59PM 41.2703 -82.5114 97° East 197 227 2,900  Level Cleveland Center
03:00PM 41.2631 -82.4422 98° East 197 227 3,000  Climbing Cleveland Center
03:01PM 41.2519 -82.3672 101° East 201 231 3,000  Level Cleveland Center
03:02PM 41.2447 -82.2869 97° East 200 230 3,000  Level Cleveland Center
03:03PM 41.2353 -82.1889 97° East  Level Estimated
03:03PM 41.2311 -82.2175 105° East 202 232 3,000  Level Cleveland Center
03:04PM 41.2217 -82.1456 100° East 200 230 3,100  Climbing Cleveland Center
03:05PM 41.2144 -82.0708 97° East 201 231 3,000 -120 Descending Cleveland Center
03:06PM 41.2069 -81.9989 98° East 206 237 2,900 -60 Descending Cleveland Center
03:07PM 41.2081 -81.9217 89° East 201 231 2,900  Level Cleveland Center
03:08PM 41.1983 -81.8414 99° East 192 221 2,900  Level Cleveland Center
03:09PM 41.1908 -81.7669 98° East 203 234 2,900  Level Cleveland Center
03:10PM 41.1853 -81.6922 96° East 200 230 3,000 60 Climbing Cleveland Center
03:12PM 41.1670 -81.6179 108° East  Level FlightAware Approximate
03:19PM 41.1514 -81.4151 90° East  Level Estimated
03:20PM 41.1514 -81.4151 90° East  Level Estimated
03:21PM 41.1514 -81.4151 90° East  Level Estimated
03:22PM 41.1514 -81.4151 90° East  Level Estimated
03:23PM 41.1514 -81.4151 90° East  Level Estimated